Time;durP1;ratioP1;P1;durP2;ratioP2;P2;SDS_P1;SDS_P2;PMS_P1;PMS_P2;Temp;Humidity;BMP_temperature;BMP_pressure;BME280_temperature;BME280_humidity;BME280_pressure;Samples;Min_cycle;Max_cycle;Signal;HPM_P1;HPM_P2
2022/08/22 00:00:12;;;;;;;1.90;1.75;;;21.20;57.00;;;;;;5071696;28;20044;-48
2022/08/22 00:02:59;;;;;;;2.72;2.53;;;21.20;57.20;;;;;;5067019;28;20119;-49
2022/08/22 00:06:03;;;;;;;3.90;2.50;;;21.20;57.90;;;;;;5061949;28;20326;-49
2022/08/22 00:08:48;;;;;;;3.28;2.22;;;21.10;57.80;;;;;;5071861;28;20102;-46
2022/08/22 00:11:34;;;;;;;2.53;2.30;;;21.10;57.80;;;;;;5064616;28;20543;-49
2022/08/22 00:14:23;;;;;;;2.85;2.50;;;21.10;58.10;;;;;;5062118;28;20040;-46
2022/08/22 00:17:21;;;;;;;2.88;2.30;;;21.10;58.20;;;;;;5051494;28;20040;-46
2022/08/22 00:20:06;;;;;;;2.70;2.53;;;21.10;58.00;;;;;;5055512;28;20092;-52
2022/08/22 00:22:54;;;;;;;2.38;2.17;;;21.10;58.40;;;;;;5054717;28;20067;-49
2022/08/22 00:25:42;;;;;;;3.70;2.25;;;21.10;58.50;;;;;;5054169;28;20647;-47
2022/08/22 00:28:21;;;;;;;2.30;2.10;;;21.10;58.80;;;;;;5068656;28;20040;-47
2022/08/22 00:31:25;;;;;;;2.65;2.45;;;21.00;58.70;;;;;;5054555;28;20052;-46
2022/08/22 00:34:05;;;;;;;3.13;2.47;;;21.10;59.00;;;;;;5055648;28;20511;-47
2022/08/22 00:37:01;;;;;;;2.40;2.20;;;21.10;58.90;;;;;;5055392;28;20052;-48
2022/08/22 00:39:39;;;;;;;2.60;2.25;;;21.00;58.90;;;;;;5051269;28;20040;-47
2022/08/22 00:42:31;;;;;;;2.90;2.13;;;21.00;58.80;;;;;;5061287;28;20050;-49
2022/08/22 00:45:22;;;;;;;2.88;2.10;;;21.10;59.00;;;;;;5067641;28;20052;-50
2022/08/22 00:48:15;;;;;;;3.83;2.38;;;21.00;59.10;;;;;;5054711;28;20056;-50
2022/08/22 00:51:31;;;;;;;2.83;1.73;;;21.00;58.90;;;;;;5052367;28;20110;-47
2022/08/22 00:54:08;;;;;;;2.65;1.90;;;21.00;58.90;;;;;;5049163;28;20083;-46
2022/08/22 00:56:55;;;;;;;2.42;2.22;;;21.00;58.30;;;;;;5062479;28;20040;-46
2022/08/22 00:59:51;;;;;;;3.55;2.83;;;21.00;59.00;;;;;;5055904;28;20044;-47
2022/08/22 01:02:49;;;;;;;3.03;2.00;;;21.00;59.30;;;;;;5060798;28;20036;-49
2022/08/22 01:05:37;;;;;;;2.63;2.42;;;21.00;59.30;;;;;;5064999;28;20036;-51
2022/08/22 01:08:20;;;;;;;2.28;2.08;;;21.00;59.10;;;;;;5061212;28;20086;-47
2022/08/22 01:11:19;;;;;;;2.80;2.20;;;21.00;59.40;;;;;;5064789;28;20048;-48
2022/08/22 01:14:07;;;;;;;2.70;2.50;;;21.00;59.30;;;;;;5064452;28;20548;-47
2022/08/22 01:16:49;;;;;;;3.38;2.35;;;21.00;59.40;;;;;;5055196;28;20044;-50
2022/08/22 01:19:33;;;;;;;2.05;1.88;;;20.90;58.90;;;;;;5064275;28;20095;-52
2022/08/22 01:22:34;;;;;;;3.05;2.67;;;20.90;59.20;;;;;;5054869;28;20717;-50
2022/08/22 01:25:37;;;;;;;2.20;2.00;;;20.90;59.40;;;;;;5028880;28;20050;-48
2022/08/22 01:28:38;;;;;;;2.75;2.13;;;20.90;59.30;;;;;;5053000;28;20049;-46
2022/08/22 01:31:36;;;;;;;3.47;2.17;;;20.90;59.30;;;;;;5052366;28;20056;-46
2022/08/22 01:34:29;;;;;;;2.58;2.38;;;20.90;59.20;;;;;;5055958;28;20053;-50
2022/08/22 01:37:10;;;;;;;5.20;2.92;;;20.80;59.10;;;;;;5059011;28;20053;-46
2022/08/22 01:40:01;;;;;;;2.80;2.38;;;20.80;58.80;;;;;;5060406;28;20036;-48
2022/08/22 01:42:42;;;;;;;3.97;2.45;;;20.80;59.10;;;;;;5067734;28;20065;-51
2022/08/22 01:45:13;;;;;;;3.53;2.30;;;20.80;58.60;;;;;;5055816;28;20049;-52
2022/08/22 01:48:04;;;;;;;5.30;2.65;;;20.70;58.70;;;;;;5054735;28;20759;-47
2022/08/22 01:50:46;;;;;;;3.40;2.60;;;20.70;59.10;;;;;;5050380;28;20039;-47
2022/08/22 01:53:24;;;;;;;3.22;2.65;;;20.70;59.00;;;;;;5048277;28;20049;-49
2022/08/22 01:56:17;;;;;;;3.17;2.35;;;20.70;59.20;;;;;;5053528;28;20068;-49
2022/08/22 01:58:59;;;;;;;2.70;2.13;;;20.70;58.90;;;;;;5061772;28;20044;-46
2022/08/22 02:01:27;;;;;;;3.35;1.95;;;20.60;59.00;;;;;;5068970;28;20074;-49
2022/08/22 02:03:58;;;;;;;2.20;1.90;;;20.50;58.30;;;;;;5061369;28;20120;-49
2022/08/22 02:06:39;;;;;;;2.65;2.05;;;20.50;58.60;;;;;;5060272;28;20491;-47
2022/08/22 02:09:27;;;;;;;3.03;2.17;;;20.50;58.60;;;;;;5070223;28;20135;-50
2022/08/22 02:12:27;;;;;;;2.15;1.98;;;20.40;58.50;;;;;;5058596;28;20044;-51
2022/08/22 02:15:19;;;;;;;3.53;2.00;;;20.40;58.70;;;;;;5040375;28;20056;-48
2022/08/22 02:18:05;;;;;;;2.40;2.20;;;20.40;58.50;;;;;;5057139;28;20125;-48
2022/08/22 02:21:23;;;;;;;2.67;2.13;;;20.30;58.80;;;;;;5053377;28;20052;-50
2022/08/22 02:24:13;;;;;;;2.75;2.30;;;20.20;58.60;;;;;;5028309;28;20464;-50
2022/08/22 02:27:07;;;;;;;2.25;2.05;;;20.20;58.70;;;;;;5063175;28;20049;-49
2022/08/22 02:29:42;;;;;;;2.45;2.25;;;20.10;58.70;;;;;;5072436;28;20147;-47
2022/08/22 02:32:28;;;;;;;2.97;2.30;;;20.10;58.60;;;;;;5062512;28;20094;-47
2022/08/22 02:35:09;;;;;;;3.10;2.72;;;20.00;58.60;;;;;;5063376;28;20562;-47
2022/08/22 02:37:55;;;;;;;4.38;2.20;;;20.00;58.60;;;;;;5072386;28;20048;-49
2022/08/22 02:40:40;;;;;;;4.53;2.30;;;20.00;58.50;;;;;;5069927;28;20718;-50
2022/08/22 02:43:28;;;;;;;3.28;2.30;;;19.90;58.80;;;;;;5053239;28;20623;-48
2022/08/22 02:46:24;;;;;;;2.90;2.00;;;19.90;59.00;;;;;;5058814;28;20041;-49
2022/08/22 02:49:25;;;;;;;1.88;1.77;;;19.90;58.90;;;;;;5063058;28;20110;-48
2022/08/22 02:52:23;;;;;;;2.05;1.95;;;19.80;58.90;;;;;;5061956;28;20045;-50
2022/08/22 02:55:00;;;;;;;3.42;2.17;;;19.80;59.00;;;;;;5055492;28;20619;-46
2022/08/22 02:57:37;;;;;;;2.33;1.90;;;19.70;58.80;;;;;;5051950;28;20056;-47
2022/08/22 03:00:16;;;;;;;2.22;2.05;;;19.70;59.10;;;;;;5059648;28;20420;-49
2022/08/22 03:03:13;;;;;;;3.25;2.00;;;19.70;58.90;;;;;;5056992;28;20120;-48
2022/08/22 03:05:40;;;;;;;2.72;2.05;;;19.70;59.30;;;;;;5051498;28;20095;-49
2022/08/22 03:08:36;;;;;;;2.22;2.00;;;19.60;58.80;;;;;;5058260;28;20048;-50
2022/08/22 03:11:28;;;;;;;3.47;2.53;;;19.50;59.50;;;;;;5057316;28;20098;-48
2022/08/22 03:14:15;;;;;;;2.30;2.05;;;19.50;59.70;;;;;;5064427;28;20064;-49
2022/08/22 03:17:01;;;;;;;3.15;2.15;;;19.40;59.70;;;;;;5052585;28;20044;-50
2022/08/22 03:20:06;;;;;;;2.30;2.10;;;19.40;59.80;;;;;;5061245;28;20068;-47
2022/08/22 03:22:38;;;;;;;2.23;2.10;;;19.40;59.80;;;;;;5047152;28;20056;-50
2022/08/22 03:25:19;;;;;;;2.83;2.30;;;19.30;59.70;;;;;;5072063;28;20408;-47
2022/08/22 03:28:06;;;;;;;2.50;2.20;;;19.30;60.30;;;;;;5066889;28;20045;-47
2022/08/22 03:30:54;;;;;;;2.80;1.95;;;19.30;60.20;;;;;;5053649;28;20457;-47
2022/08/22 03:33:29;;;;;;;2.65;2.45;;;19.30;60.10;;;;;;5055447;28;20094;-49
2022/08/22 03:36:02;;;;;;;2.40;2.10;;;19.20;59.80;;;;;;5070897;28;20547;-50
2022/08/22 03:38:32;;;;;;;2.35;2.13;;;19.20;59.80;;;;;;5057920;28;20036;-51
2022/08/22 03:41:14;;;;;;;2.50;1.92;;;19.20;59.80;;;;;;5059759;28;20094;-51
2022/08/22 03:44:16;;;;;;;3.60;2.35;;;19.20;60.40;;;;;;5071221;28;20041;-49
2022/08/22 03:46:59;;;;;;;2.67;2.40;;;19.20;60.50;;;;;;5059136;28;20045;-48
2022/08/22 03:49:55;;;;;;;2.30;2.20;;;19.20;60.20;;;;;;5053841;28;20057;-50
2022/08/22 03:53:07;;;;;;;2.58;2.25;;;19.10;60.20;;;;;;5030416;28;20129;-50
2022/08/22 03:56:09;;;;;;;2.55;2.28;;;19.00;60.20;;;;;;5054364;28;20451;-50
2022/08/22 03:58:48;;;;;;;3.30;2.45;;;19.00;59.90;;;;;;5054298;28;20091;-46
2022/08/22 04:01:52;;;;;;;1.63;1.50;;;19.00;60.10;;;;;;5050591;28;20080;-47
2022/08/22 04:04:33;;;;;;;2.15;1.98;;;19.00;60.20;;;;;;5058766;28;20131;-49
2022/08/22 04:07:26;;;;;;;4.35;2.40;;;18.90;59.50;;;;;;5058892;28;20124;-51
2022/08/22 04:10:32;;;;;;;3.20;2.22;;;18.90;60.30;;;;;;5048241;28;20123;-48
2022/08/22 04:13:09;;;;;;;2.22;1.95;;;18.90;60.20;;;;;;5059483;28;20722;-48
2022/08/22 04:16:03;;;;;;;2.17;1.73;;;18.90;60.40;;;;;;5056681;28;20579;-47
2022/08/22 04:18:57;;;;;;;2.15;1.95;;;18.80;60.10;;;;;;5044150;28;20041;-50
2022/08/22 04:21:29;;;;;;;3.35;2.45;;;18.80;60.40;;;;;;5056168;28;20101;-49
2022/08/22 04:24:16;;;;;;;2.42;2.22;;;18.80;60.00;;;;;;5057396;28;20045;-50
2022/08/22 04:26:52;;;;;;;2.30;1.95;;;18.80;60.10;;;;;;5055474;28;20568;-50
2022/08/22 04:29:29;;;;;;;3.78;2.30;;;18.70;60.30;;;;;;5055679;28;20058;-47
2022/08/22 04:32:13;;;;;;;2.67;2.10;;;18.70;60.10;;;;;;5070189;28;20098;-51
2022/08/22 04:34:50;;;;;;;2.63;2.25;;;18.70;60.40;;;;;;5054320;28;20091;-48
2022/08/22 04:37:37;;;;;;;1.85;1.60;;;18.70;60.40;;;;;;5060237;28;20513;-50
2022/08/22 04:40:31;;;;;;;2.70;2.17;;;18.70;60.60;;;;;;5070330;28;20036;-49
2022/08/22 04:43:11;;;;;;;2.25;2.03;;;18.70;60.60;;;;;;5066354;28;20122;-50
2022/08/22 04:45:49;;;;;;;2.95;2.25;;;18.60;60.10;;;;;;5057385;28;20044;-51
2022/08/22 04:48:33;;;;;;;3.50;2.00;;;18.60;60.20;;;;;;5054652;28;20048;-47
2022/08/22 04:51:07;;;;;;;;;;;18.60;60.60;;;;;;5069850;28;20045;-47
2022/08/22 04:54:04;;;;;;;2.10;1.90;;;18.60;59.90;;;;;;5063809;28;19921;-51
2022/08/22 04:57:22;;;;;;;4.38;2.10;;;18.60;60.60;;;;;;5053599;28;20041;-47
2022/08/22 04:59:50;;;;;;;2.75;2.30;;;18.60;60.90;;;;;;5034591;28;20456;-49
2022/08/22 05:02:26;;;;;;;4.57;2.50;;;18.60;60.40;;;;;;5056246;28;20036;-48
2022/08/22 05:05:07;;;;;;;3.33;2.30;;;18.60;61.20;;;;;;5060826;28;20071;-50
2022/08/22 05:07:46;;;;;;;3.92;2.03;;;18.60;61.50;;;;;;5030233;28;20046;-49
2022/08/22 05:10:26;;;;;;;2.90;2.70;;;18.60;61.60;;;;;;5029737;28;20144;-50
2022/08/22 05:13:01;;;;;;;4.07;2.90;;;18.60;61.70;;;;;;5060375;28;20090;-50
2022/08/22 05:15:39;;;;;;;2.40;2.30;;;18.70;62.00;;;;;;5057719;28;20037;-46
2022/08/22 05:18:16;;;;;;;2.90;2.58;;;18.70;62.40;;;;;;5048039;28;20528;-52
2022/08/22 05:20:49;;;;;;;3.53;2.70;;;18.60;62.40;;;;;;5057087;28;20451;-51
2022/08/22 05:23:47;;;;;;;2.88;2.60;;;18.70;62.40;;;;;;5052084;28;20036;-51
2022/08/22 05:26:15;;;;;;;4.13;2.67;;;18.70;63.30;;;;;;5060416;28;20068;-46
2022/08/22 05:28:47;;;;;;;4.75;3.03;;;18.70;62.50;;;;;;5068597;28;20044;-46
2022/08/22 05:31:30;;;;;;;3.80;2.80;;;18.80;62.90;;;;;;5062354;28;20097;-48
2022/08/22 05:34:05;;;;;;;3.70;2.67;;;18.80;63.70;;;;;;5062504;28;20045;-50
2022/08/22 05:36:50;;;;;;;4.30;2.90;;;18.80;63.50;;;;;;5067851;28;20072;-46
2022/08/22 05:39:23;;;;;;;3.35;2.80;;;18.90;63.80;;;;;;5075782;22;20171;-48
2022/08/22 05:41:59;;;;;;;4.05;2.78;;;18.90;63.60;;;;;;5015821;28;20120;-48
2022/08/22 05:44:27;;;;;;;;;;;19.00;63.50;;;;;;5014606;28;20049;-48
2022/08/22 05:47:20;;;;;;;4.22;2.67;;;19.10;63.20;;;;;;5028965;28;19947;-44
2022/08/22 05:50:11;;;;;;;3.65;2.78;;;19.20;64.20;;;;;;5013293;28;20125;-47
2022/08/22 05:52:48;;;;;;;4.35;3.63;;;19.30;64.50;;;;;;5004446;28;20553;-48
2022/08/22 05:55:18;;;;;;;4.43;3.15;;;19.20;63.30;;;;;;5009204;28;20415;-44
2022/08/22 05:58:18;;;;;;;5.82;3.50;;;19.30;63.50;;;;;;4999475;28;20112;-49
2022/08/22 06:01:25;;;;;;;5.28;3.20;;;19.40;64.00;;;;;;4998430;28;20034;-44
2022/08/22 06:04:22;;;;;;;4.15;3.75;;;19.50;64.60;;;;;;5002433;28;20049;-46
2022/08/22 06:06:58;;;;;;;3.47;3.17;;;19.50;64.00;;;;;;4995072;28;20047;-45
2022/08/22 06:09:46;;;;;;;3.72;3.35;;;19.60;64.20;;;;;;4997145;28;20046;-48
2022/08/22 06:12:32;;;;;;;5.97;3.47;;;19.70;64.70;;;;;;5010602;28;20068;-49
2022/08/22 06:15:44;;;;;;;5.75;3.58;;;19.80;64.30;;;;;;4996866;28;20042;-53
2022/08/22 06:18:19;;;;;;;3.97;3.58;;;19.90;64.90;;;;;;5000360;28;20042;-49
2022/08/22 06:20:57;;;;;;;7.63;3.38;;;20.10;64.10;;;;;;5009805;28;20072;-49
2022/08/22 06:23:29;;;;;;;8.00;4.28;;;20.20;64.30;;;;;;4975930;28;20527;-49
2022/08/22 06:25:59;;;;;;;5.53;3.83;;;20.30;64.70;;;;;;4997770;28;20104;-45
2022/08/22 06:28:31;;;;;;;6.28;4.10;;;20.40;64.40;;;;;;5009903;28;20104;-48
2022/08/22 06:31:01;;;;;;;5.22;3.92;;;20.60;64.50;;;;;;5008072;28;20088;-50
2022/08/22 06:33:34;;;;;;;6.78;4.43;;;20.70;64.20;;;;;;5002587;28;20380;-49
2022/08/22 06:39:09;;;;;;;5.82;4.57;;;20.90;63.60;;;;;;5006399;28;20042;-50
2022/08/22 06:41:41;;;;;;;;;;;21.10;64.10;;;;;;5009766;28;20243;-49
2022/08/22 06:44:15;;;;;;;4.78;3.80;;;21.30;63.20;;;;;;4995149;28;20010;-48
2022/08/22 06:46:44;;;;;;;6.63;4.60;;;21.40;63.40;;;;;;5006545;28;20046;-50
2022/08/22 06:49:12;;;;;;;9.45;4.57;;;21.50;63.20;;;;;;5009612;28;20046;-49
2022/08/22 06:51:44;;;;;;;6.03;4.15;;;21.60;62.80;;;;;;5003948;28;20043;-45
2022/08/22 06:54:20;;;;;;;7.05;4.57;;;21.70;62.60;;;;;;4992630;28;20046;-47
2022/08/22 06:56:51;;;;;;;5.70;4.72;;;21.80;62.60;;;;;;4996068;28;20578;-51
2022/08/22 06:59:24;;;;;;;5.47;4.18;;;21.90;62.80;;;;;;5010651;28;20046;-49
2022/08/22 07:02:03;;;;;;;7.13;4.30;;;22.00;62.80;;;;;;5007652;28;20686;-50
2022/08/22 07:04:30;;;;;;;6.00;3.90;;;22.10;62.20;;;;;;4998319;28;20524;-52
2022/08/22 07:07:00;;;;;;;6.00;4.35;;;22.20;61.70;;;;;;5012466;28;20498;-49
2022/08/22 07:09:36;;;;;;;6.47;4.03;;;22.40;61.60;;;;;;5013532;28;20450;-46
2022/08/22 07:12:12;;;;;;;7.10;4.68;;;22.40;61.80;;;;;;5001882;28;20038;-48
2022/08/22 07:14:41;;;;;;;7.13;4.43;;;22.50;61.50;;;;;;4992167;28;20494;-51
2022/08/22 07:17:23;;;;;;;10.88;5.65;;;22.60;61.10;;;;;;5005172;28;20046;-49
2022/08/22 07:20:03;;;;;;;5.55;4.50;;;22.70;61.00;;;;;;4996271;28;20093;-49
2022/08/22 07:22:36;;;;;;;7.03;4.40;;;22.80;60.90;;;;;;4987432;28;20071;-49
2022/08/22 07:25:09;;;;;;;5.70;4.18;;;22.90;60.70;;;;;;5002237;28;20058;-46
2022/08/22 07:27:42;;;;;;;8.00;4.45;;;22.90;60.60;;;;;;5012688;28;20046;-50
2022/08/22 07:30:17;;;;;;;6.93;4.88;;;23.00;60.40;;;;;;5012039;28;20041;-48
2022/08/22 07:33:01;;;;;;;8.18;5.45;;;23.10;60.60;;;;;;4994864;28;20053;-51
2022/08/22 07:36:02;;;;;;;7.43;5.53;;;23.10;60.30;;;;;;5003975;28;20514;-50
2022/08/22 07:38:46;;;;;;;10.75;6.43;;;23.20;60.10;;;;;;5012591;28;20503;-46
2022/08/22 07:41:33;;;;;;;8.25;5.20;;;23.30;59.90;;;;;;5005810;28;20088;-46
2022/08/22 07:44:22;;;;;;;8.02;5.60;;;23.30;59.70;;;;;;5006469;28;20221;-51
2022/08/22 07:46:59;;;;;;;10.48;6.47;;;23.30;59.70;;;;;;5010876;28;20049;-48
2022/08/22 07:49:37;;;;;;;7.22;5.60;;;23.30;59.80;;;;;;5008958;28;20108;-48
2022/08/22 07:52:08;;;;;;;9.57;5.85;;;23.40;60.70;;;;;;4992879;28;20443;-45
2022/08/22 07:54:47;;;;;;;9.70;6.05;;;23.30;59.80;;;;;;5011283;28;20092;-48
2022/08/22 07:57:33;;;;;;;8.88;5.65;;;23.40;60.20;;;;;;5011730;28;20041;-46
2022/08/22 08:00:03;;;;;;;5.93;4.85;;;23.40;60.00;;;;;;4995768;28;20046;-50
2022/08/22 08:02:44;;;;;;;7.13;5.43;;;23.50;59.80;;;;;;5011405;28;20490;-47
2022/08/22 08:05:16;;;;;;;9.07;5.30;;;23.50;59.80;;;;;;5011503;28;20049;-46
2022/08/22 08:07:46;;;;;;;6.50;5.50;;;23.60;59.80;;;;;;5000851;28;20439;-49
2022/08/22 08:10:22;;;;;;;7.07;5.25;;;23.60;59.80;;;;;;4992250;28;20438;-48
2022/08/22 08:12:59;;;;;;;7.70;4.93;;;23.80;60.00;;;;;;5004279;28;20691;-52
2022/08/22 08:15:34;;;;;;;8.45;5.22;;;23.80;59.90;;;;;;4974649;28;20507;-48
2022/08/22 08:18:09;;;;;;;8.02;5.63;;;23.80;59.70;;;;;;4990214;28;20101;-47
2022/08/22 08:20:38;;;;;;;6.93;4.82;;;24.00;59.40;;;;;;5000236;28;20388;-50
2022/08/22 08:23:10;;;;;;;11.73;5.35;;;24.10;59.20;;;;;;4994633;28;20075;-46
2022/08/22 08:25:53;;;;;;;6.05;4.13;;;24.20;59.20;;;;;;5009419;28;20037;-50
2022/08/22 08:28:36;;;;;;;8.80;4.68;;;24.30;58.80;;;;;;4980890;28;20054;-48
2022/08/22 08:31:25;;;;;;;9.95;4.25;;;24.40;58.70;;;;;;5000175;28;20072;-50
2022/08/22 08:34:26;;;;;;;8.90;4.93;;;24.50;58.40;;;;;;5011952;28;20077;-51
2022/08/22 08:37:01;;;;;;;9.23;5.00;;;24.70;57.50;;;;;;5001669;28;20100;-50
2022/08/22 08:39:39;;;;;;;7.65;4.70;;;24.80;57.50;;;;;;4992921;28;20038;-50
2022/08/22 08:43:25;;;;;;;8.18;4.95;;;24.90;56.90;;;;;;5009084;28;20050;-49
2022/08/22 08:46:06;;;;;;;6.38;4.47;;;24.90;57.10;;;;;;5000650;28;20042;-52
2022/08/22 08:49:19;;;;;;;7.80;4.53;;;25.10;56.70;;;;;;4999803;28;20057;-47
2022/08/22 08:52:24;;;;;;;9.45;4.00;;;25.20;55.60;;;;;;5003054;28;20054;-48
2022/08/22 08:55:10;;;;;;;8.18;4.28;;;25.30;55.60;;;;;;4994342;28;20084;-52
2022/08/22 08:58:36;;;;;;;8.07;3.97;;;25.40;54.60;;;;;;5000702;28;20042;-51
2022/08/22 09:01:57;;;;;;;8.63;4.10;;;25.60;54.60;;;;;;5003024;28;20414;-51
2022/08/22 09:04:42;;;;;;;7.57;3.38;;;25.70;54.00;;;;;;4977207;28;20621;-53
2022/08/22 09:07:14;;;;;;;7.65;3.83;;;25.80;53.60;;;;;;4992873;28;20104;-46
2022/08/22 09:09:47;;;;;;;6.15;3.58;;;25.90;53.00;;;;;;5011523;28;20102;-51
2022/08/22 09:12:36;;;;;;;7.47;3.75;;;26.00;52.30;;;;;;5010718;28;20038;-50
2022/08/22 09:15:34;;;;;;;6.20;3.25;;;26.10;51.00;;;;;;4999118;28;20112;-50
2022/08/22 09:18:28;;;;;;;6.78;3.50;;;26.20;51.50;;;;;;5003457;28;20046;-47
2022/08/22 09:21:26;;;;;;;6.57;2.72;;;26.20;51.20;;;;;;5009192;28;20100;-51
2022/08/22 09:24:24;;;;;;;7.13;2.70;;;26.40;50.00;;;;;;5000452;28;20057;-47
2022/08/22 09:26:59;;;;;;;6.05;2.20;;;26.50;49.70;;;;;;4997448;28;20045;-51
2022/08/22 09:29:36;;;;;;;4.57;2.88;;;26.60;49.80;;;;;;4995843;28;20100;-48
2022/08/22 09:32:36;;;;;;;6.93;2.58;;;26.70;48.80;;;;;;5004089;28;20517;-47
2022/08/22 09:35:21;;;;;;;6.05;2.50;;;26.90;48.50;;;;;;4990213;28;20495;-50
2022/08/22 09:38:09;;;;;;;3.55;1.83;;;27.00;48.50;;;;;;5010095;28;20038;-46
2022/08/22 09:41:00;;;;;;;3.20;2.05;;;27.10;48.60;;;;;;5009661;28;20469;-49
2022/08/22 09:43:44;;;;;;;4.35;2.15;;;27.20;48.60;;;;;;4989175;28;20044;-49
2022/08/22 09:46:32;;;;;;;4.10;1.85;;;27.40;46.50;;;;;;5001620;28;20112;-47
2022/08/22 09:49:27;;;;;;;6.72;2.50;;;27.50;46.40;;;;;;5010181;28;20049;-49
2022/08/22 09:52:12;;;;;;;4.13;2.28;;;27.60;46.50;;;;;;4994829;28;20059;-49
2022/08/22 09:54:57;;;;;;;7.45;1.92;;;27.70;45.60;;;;;;5008771;28;20074;-50
2022/08/22 09:57:50;;;;;;;3.63;1.85;;;27.80;45.60;;;;;;4992170;28;20034;-47
2022/08/22 10:00:23;;;;;;;3.22;1.73;;;27.90;45.10;;;;;;4997602;28;20038;-49
2022/08/22 10:03:13;;;;;;;6.18;3.00;;;28.00;45.30;;;;;;4990103;28;20446;-49
2022/08/22 10:06:06;;;;;;;4.55;2.40;;;28.10;44.10;;;;;;4999119;28;20050;-50
2022/08/22 10:09:02;;;;;;;4.78;2.05;;;28.20;44.00;;;;;;5011137;28;20518;-51
2022/08/22 10:11:40;;;;;;;3.97;1.58;;;28.20;43.10;;;;;;4992468;28;20058;-51
2022/08/22 10:14:22;;;;;;;3.33;2.20;;;28.20;43.50;;;;;;5008406;28;20069;-52
2022/08/22 10:17:05;;;;;;;5.25;1.40;;;28.30;42.90;;;;;;4996242;28;20108;-46
2022/08/22 10:19:44;;;;;;;5.18;2.08;;;28.40;42.60;;;;;;4988551;28;20034;-50
2022/08/22 10:22:38;;;;;;;2.83;1.70;;;28.40;42.90;;;;;;4984383;28;20088;-50
2022/08/22 10:25:30;;;;;;;5.60;1.73;;;28.50;43.00;;;;;;5000819;28;20077;-50
2022/08/22 10:28:18;;;;;;;4.78;1.77;;;28.50;42.60;;;;;;5010659;28;20473;-46
2022/08/22 10:31:20;;;;;;;3.28;1.30;;;28.70;42.00;;;;;;5004773;28;20070;-50
2022/08/22 10:34:08;;;;;;;2.55;1.30;;;28.80;41.40;;;;;;4997553;28;20050;-49
2022/08/22 10:36:54;;;;;;;2.25;1.35;;;28.90;40.70;;;;;;5001960;28;20453;-49
2022/08/22 10:39:29;;;;;;;4.40;1.45;;;29.00;41.60;;;;;;5000403;28;20074;-46
2022/08/22 10:42:18;;;;;;;4.70;1.45;;;29.10;41.20;;;;;;5005111;28;20072;-45
2022/08/22 10:45:19;;;;;;;3.10;1.52;;;29.20;41.20;;;;;;5013500;28;20414;-51
2022/08/22 10:48:04;;;;;;;3.63;1.65;;;29.30;41.30;;;;;;5013501;28;20112;-51
2022/08/22 10:50:49;;;;;;;3.20;1.98;;;29.40;40.60;;;;;;4994931;28;20107;-51
2022/08/22 10:53:33;;;;;;;6.32;2.00;;;29.40;39.90;;;;;;5012841;28;20034;-52
2022/08/22 10:56:18;;;;;;;3.13;1.42;;;29.50;39.80;;;;;;5011306;28;20048;-48
2022/08/22 10:59:10;;;;;;;4.93;1.42;;;29.50;40.10;;;;;;4980125;28;20129;-50
2022/08/22 11:01:58;;;;;;;4.18;1.42;;;29.60;40.10;;;;;;5003227;28;20476;-49
2022/08/22 11:05:16;;;;;;;5.38;2.05;;;29.60;39.90;;;;;;4973611;28;20109;-51
2022/08/22 11:07:46;;;;;;;4.55;1.42;;;29.70;39.50;;;;;;4968045;28;20101;-47
2022/08/22 11:10:26;;;;;;;4.45;1.52;;;29.80;39.50;;;;;;5011578;28;20080;-46
2022/08/22 11:13:31;;;;;;;3.22;1.40;;;29.80;38.50;;;;;;5012740;28;20046;-49
2022/08/22 11:16:16;;;;;;;3.15;1.63;;;30.00;38.70;;;;;;4981831;28;22384;-48
2022/08/22 11:19:30;;;;;;;3.33;1.88;;;30.10;38.60;;;;;;5004443;28;20046;-49
2022/08/22 11:22:13;;;;;;;3.22;1.25;;;30.20;38.70;;;;;;4996087;28;20476;-48
2022/08/22 11:25:02;;;;;;;4.32;1.73;;;30.30;38.30;;;;;;4998893;28;20030;-48
2022/08/22 11:28:02;;;;;;;3.85;1.50;;;30.40;38.20;;;;;;4999352;28;20138;-49
2022/08/22 11:31:03;;;;;;;2.33;1.30;;;30.50;37.80;;;;;;5004138;28;20093;-46
2022/08/22 11:34:02;;;;;;;4.88;1.77;;;30.60;38.20;;;;;;5002049;28;20050;-46
2022/08/22 11:37:03;;;;;;;4.63;1.50;;;30.70;37.60;;;;;;4986893;28;20061;-50
2022/08/22 11:39:48;;;;;;;3.50;1.58;;;30.80;38.00;;;;;;5001209;28;20053;-48
2022/08/22 11:42:26;;;;;;;5.15;1.52;;;30.80;37.40;;;;;;5012354;28;20049;-51
2022/08/22 11:44:58;;;;;;;3.83;2.15;;;30.90;37.80;;;;;;4998155;28;20531;-48
2022/08/22 11:47:35;;;;;;;3.58;2.08;;;31.00;37.90;;;;;;4998445;28;20096;-49
2022/08/22 11:50:33;;;;;;;3.78;1.55;;;31.00;37.60;;;;;;5011495;28;20112;-48
2022/08/22 11:53:12;;;;;;;3.63;1.95;;;31.10;37.70;;;;;;5011836;28;20523;-50
2022/08/22 11:56:04;;;;;;;3.58;1.67;;;31.20;37.00;;;;;;4994576;28;20514;-51
2022/08/22 11:58:50;;;;;;;5.57;2.25;;;31.20;37.70;;;;;;5010820;28;20042;-51
2022/08/22 12:01:22;;;;;;;3.13;1.95;;;31.20;37.10;;;;;;5011491;28;20042;-51
2022/08/22 12:04:06;;;;;;;;;;;31.20;37.40;;;;;;5001431;28;20093;-48
2022/08/22 12:06:55;;;;;;;4.40;1.33;;;31.30;38.50;;;;;;4993853;28;20016;-46
2022/08/22 12:09:42;;;;;;;5.00;1.90;;;31.30;37.50;;;;;;4997705;28;20042;-51
2022/08/22 12:12:21;;;;;;;6.53;2.08;;;31.40;36.60;;;;;;5007636;28;20069;-49
2022/08/22 12:15:00;;;;;;;4.20;1.60;;;31.40;36.40;;;;;;4992584;28;20038;-48
2022/08/22 12:18:13;;;;;;;4.95;2.30;;;31.60;36.40;;;;;;5003091;28;20042;-50
2022/08/22 12:21:16;;;;;;;5.18;1.95;;;31.60;36.90;;;;;;4991962;28;20042;-50
2022/08/22 12:24:13;;;;;;;4.90;1.80;;;31.70;37.10;;;;;;4993573;28;20042;-47
2022/08/22 12:27:07;;;;;;;3.97;1.95;;;31.80;36.80;;;;;;5002149;28;20041;-49
2022/08/22 12:29:53;;;;;;;5.40;2.30;;;31.80;36.30;;;;;;5006564;28;20043;-48
2022/08/22 12:32:53;;;;;;;3.38;1.58;;;31.90;36.10;;;;;;4996382;28;20561;-51
2022/08/22 12:35:51;;;;;;;4.50;2.35;;;32.00;36.10;;;;;;4995124;28;20124;-52
2022/08/22 12:38:37;;;;;;;2.55;1.42;;;32.00;35.40;;;;;;4992248;28;20049;-49
2022/08/22 12:41:33;;;;;;;2.33;1.75;;;32.10;35.60;;;;;;4995248;28;20559;-50
2022/08/22 12:44:11;;;;;;;6.35;2.00;;;32.10;35.60;;;;;;5004748;28;20169;-50
2022/08/22 12:46:54;;;;;;;4.35;1.55;;;32.20;35.60;;;;;;5010602;28;20050;-50
2022/08/22 12:49:35;;;;;;;4.13;1.90;;;32.30;35.10;;;;;;4991428;28;20101;-53
2022/08/22 12:52:14;;;;;;;4.28;1.45;;;32.40;35.10;;;;;;4993810;28;20406;-46
2022/08/22 12:54:51;;;;;;;3.05;1.48;;;32.50;34.60;;;;;;5010119;28;20052;-51
2022/08/22 12:57:38;;;;;;;4.72;1.80;;;32.60;34.80;;;;;;5010018;28;20442;-51
2022/08/22 13:00:29;;;;;;;3.85;1.48;;;32.60;34.20;;;;;;4996649;28;20559;-49
2022/08/22 13:03:01;;;;;;;2.80;1.52;;;32.80;34.80;;;;;;5000157;28;20061;-50
2022/08/22 13:05:29;;;;;;;3.50;2.15;;;32.80;34.00;;;;;;5010039;28;20095;-49
2022/08/22 13:08:08;;;;;;;2.60;1.60;;;32.80;33.90;;;;;;5011248;28;20076;-48
2022/08/22 13:10:46;;;;;;;4.45;2.00;;;32.80;34.10;;;;;;4993684;28;20046;-52
2022/08/22 13:13:43;;;;;;;3.65;2.10;;;32.70;34.00;;;;;;5009169;28;20049;-50
2022/08/22 13:16:24;;;;;;;4.32;2.05;;;32.70;33.60;;;;;;4997801;28;20050;-47
2022/08/22 13:19:02;;;;;;;6.75;3.25;;;32.50;34.20;;;;;;4994740;28;20049;-48
2022/08/22 13:21:41;;;;;;;5.75;2.60;;;32.40;34.50;;;;;;4989710;28;20049;-49
2022/08/22 13:24:15;;;;;;;3.95;2.00;;;32.30;33.70;;;;;;4993896;28;20062;-49
2022/08/22 13:26:54;;;;;;;5.47;2.00;;;32.10;33.90;;;;;;5009668;28;20446;-51
2022/08/22 13:29:31;;;;;;;5.07;2.05;;;32.00;34.80;;;;;;4987445;28;20052;-52
2022/08/22 13:32:15;;;;;;;2.43;1.63;;;31.90;34.30;;;;;;5008247;28;20050;-45
2022/08/22 13:34:51;;;;;;;3.78;1.75;;;31.90;35.10;;;;;;4998550;28;20772;-49
2022/08/22 13:37:27;;;;;;;4.53;1.50;;;32.10;35.00;;;;;;5000723;28;20030;-48
2022/08/22 13:40:04;;;;;;;3.72;2.13;;;32.40;35.50;;;;;;5010513;28;20053;-48
2022/08/22 13:42:34;;;;;;;4.97;1.60;;;32.90;34.70;;;;;;5006815;28;20050;-51
2022/08/22 13:45:12;;;;;;;5.57;2.13;;;33.70;34.80;;;;;;4999806;28;20042;-51
2022/08/22 13:47:50;;;;;;;3.97;1.70;;;34.60;33.80;;;;;;5008927;28;20499;-50
2022/08/22 13:50:30;;;;;;;2.63;1.88;;;35.90;33.50;;;;;;5002347;28;20046;-50
2022/08/22 13:53:47;;;;;;;4.93;1.40;;;37.20;33.00;;;;;;5010952;28;20451;-51
2022/08/22 13:56:41;;;;;;;3.58;1.90;;;38.90;32.80;;;;;;4987077;28;20050;-48
2022/08/22 13:59:29;;;;;;;2.25;1.70;;;40.10;29.90;;;;;;5005378;28;20056;-47
2022/08/22 14:02:37;;;;;;;3.38;1.63;;;41.10;28.80;;;;;;5010097;28;20046;-48
2022/08/22 14:05:15;;;;;;;4.63;1.50;;;41.90;28.70;;;;;;4995783;28;20078;-49
2022/08/22 14:07:56;;;;;;;2.08;1.45;;;42.60;27.20;;;;;;4999262;28;20057;-48
2022/08/22 14:10:33;;;;;;;2.13;1.50;;;43.20;26.60;;;;;;5001068;28;20108;-52
2022/08/22 14:12:59;;;;;;;4.15;1.73;;;43.60;26.30;;;;;;5014746;28;20495;-51
2022/08/22 14:15:32;;;;;;;2.78;1.48;;;43.80;26.00;;;;;;4993977;28;20038;-45
2022/08/22 14:18:24;;;;;;;4.45;1.73;;;44.00;25.80;;;;;;5012545;28;20052;-48
2022/08/22 14:21:31;;;;;;;2.63;1.58;;;44.30;25.30;;;;;;5012786;28;20042;-51
2022/08/22 14:24:27;;;;;;;3.50;1.50;;;44.60;24.70;;;;;;4992925;28;20118;-46